createdAt,value
2022-11-23T00:02:04.396Z,19.30
2022-11-23T00:04:30.013Z,19.33
2022-11-23T00:06:55.562Z,19.31
2022-11-23T00:09:21.098Z,19.32
2022-11-23T00:11:46.680Z,19.30
2022-11-23T00:14:12.250Z,19.31
2022-11-23T00:16:37.812Z,19.32
2022-11-23T00:19:03.353Z,19.30
2022-11-23T00:21:29.753Z,19.30
2022-11-23T00:23:55.349Z,19.30
2022-11-23T00:26:20.897Z,19.30
2022-11-23T00:28:46.583Z,19.30
2022-11-23T00:31:13.025Z,19.30
2022-11-23T00:33:38.637Z,19.29
2022-11-23T00:36:05.607Z,19.30
2022-11-23T00:38:31.261Z,19.29
2022-11-23T00:40:57.895Z,19.29
2022-11-23T00:43:23.441Z,19.29
2022-11-23T00:45:50.223Z,19.29
2022-11-23T00:48:15.769Z,19.28
2022-11-23T00:50:41.310Z,19.29
2022-11-23T00:53:06.847Z,19.29
2022-11-23T00:55:32.406Z,19.29
2022-11-23T00:57:57.945Z,19.29
2022-11-23T01:00:23.514Z,19.28
2022-11-23T01:02:49.072Z,19.28
2022-11-23T01:05:14.615Z,19.28
2022-11-23T01:07:40.204Z,19.28
2022-11-23T01:10:07.343Z,19.28
2022-11-23T01:12:32.951Z,19.28
2022-11-23T01:14:58.502Z,19.28
2022-11-23T01:17:24.050Z,19.28
2022-11-23T01:19:49.600Z,19.28
2022-11-23T01:22:15.146Z,19.27
2022-11-23T01:24:40.687Z,19.27
2022-11-23T01:27:06.237Z,19.28
2022-11-23T01:29:31.993Z,19.28
2022-11-23T01:31:57.764Z,19.27
2022-11-23T01:34:23.304Z,19.27
2022-11-23T01:36:48.856Z,19.27
2022-11-23T01:39:14.398Z,19.26
2022-11-23T01:41:40.405Z,19.26
2022-11-23T01:44:25.901Z,19.27
2022-11-23T01:46:51.452Z,19.27
2022-11-23T01:49:16.990Z,19.27
2022-11-23T01:51:43.942Z,19.27
2022-11-23T01:54:11.119Z,19.26
2022-11-23T01:56:38.658Z,19.26
2022-11-23T01:59:04.393Z,19.27
2022-11-23T02:01:29.986Z,19.26
2022-11-23T02:03:55.740Z,19.26
2022-11-23T02:06:21.293Z,19.26
2022-11-23T02:08:46.838Z,19.26
2022-11-23T02:11:12.720Z,19.26
2022-11-23T02:13:38.290Z,19.26
2022-11-23T02:16:03.862Z,19.26
2022-11-23T02:18:30.215Z,19.25
2022-11-23T02:20:56.365Z,19.26
2022-11-23T02:23:41.795Z,19.27
2022-11-23T02:26:08.714Z,19.25
2022-11-23T02:28:36.226Z,19.25
2022-11-23T02:31:02.337Z,19.25
2022-11-23T02:33:28.122Z,19.24
2022-11-23T02:35:54.847Z,19.26
2022-11-23T02:38:20.525Z,19.25
2022-11-23T02:40:46.232Z,19.25
2022-11-23T02:43:11.779Z,19.25
2022-11-23T02:45:42.094Z,19.24
2022-11-23T02:48:07.697Z,19.25
2022-11-23T02:50:33.263Z,19.24
2022-11-23T02:52:58.807Z,19.24
2022-11-23T02:55:24.346Z,19.24
2022-11-23T02:57:49.892Z,19.24
2022-11-23T03:00:15.883Z,19.25
2022-11-23T03:02:41.435Z,19.23
2022-11-23T03:05:07.199Z,19.24
2022-11-23T03:07:32.785Z,19.24
2022-11-23T03:09:58.584Z,19.25
2022-11-23T03:12:24.127Z,19.23
2022-11-23T03:14:49.669Z,19.24
2022-11-23T03:17:15.210Z,19.23
2022-11-23T03:19:40.747Z,19.24
2022-11-23T03:22:06.398Z,19.23
2022-11-23T03:24:31.945Z,19.23
2022-11-23T03:26:57.499Z,19.23
2022-11-23T03:29:25.570Z,19.23
2022-11-23T03:31:51.566Z,19.24
2022-11-23T03:34:17.103Z,19.23
2022-11-23T03:36:42.665Z,19.23
2022-11-23T03:39:08.365Z,19.22
2022-11-23T03:41:33.948Z,19.23
2022-11-23T03:43:59.493Z,19.23
2022-11-23T03:46:25.062Z,19.24
2022-11-23T03:48:50.610Z,19.23
2022-11-23T03:51:16.147Z,19.22
2022-11-23T03:53:41.703Z,19.22
2022-11-23T03:56:07.452Z,19.23
2022-11-23T03:58:33.007Z,19.22
2022-11-23T04:00:58.582Z,19.22
2022-11-23T04:03:24.175Z,19.22
2022-11-23T04:05:49.725Z,19.22
2022-11-23T04:08:15.270Z,19.22
2022-11-23T04:10:40.848Z,19.22
2022-11-23T04:13:06.388Z,19.21
2022-11-23T04:15:31.926Z,19.22
2022-11-23T04:17:57.484Z,19.22
2022-11-23T04:20:23.030Z,19.22
2022-11-23T04:22:48.574Z,19.21
2022-11-23T04:25:14.116Z,19.22
2022-11-23T04:27:39.713Z,19.21
2022-11-23T04:30:05.466Z,19.21
2022-11-23T04:32:31.027Z,19.22
2022-11-23T04:34:56.568Z,19.21
2022-11-23T04:37:22.115Z,19.21
2022-11-23T04:39:47.647Z,19.22
2022-11-23T04:42:13.273Z,19.22
2022-11-23T04:44:38.821Z,19.21
2022-11-23T04:47:04.370Z,19.22
2022-11-23T04:49:30.277Z,19.21
2022-11-23T04:51:56.159Z,19.21
2022-11-23T04:54:21.694Z,19.22
2022-11-23T04:56:47.240Z,19.21
2022-11-23T04:59:12.859Z,19.21
2022-11-23T05:01:38.463Z,19.20
2022-11-23T05:04:04.083Z,19.21
2022-11-23T05:06:29.629Z,19.21
2022-11-23T05:08:55.165Z,19.21
2022-11-23T05:11:20.714Z,19.21
2022-11-23T05:13:46.255Z,19.21
2022-11-23T05:16:11.808Z,19.21
2022-11-23T05:18:37.362Z,19.20
2022-11-23T05:21:02.918Z,19.20
2022-11-23T05:23:28.500Z,19.22
2022-11-23T05:25:54.058Z,19.21
2022-11-23T05:31:05.883Z,19.19
2022-11-23T05:33:31.435Z,19.20
2022-11-23T05:35:56.985Z,19.21
2022-11-23T05:38:22.525Z,19.21
2022-11-23T05:40:48.070Z,19.20
2022-11-23T05:43:13.620Z,19.20
2022-11-23T05:45:39.161Z,19.21
2022-11-23T05:48:04.834Z,19.20
2022-11-23T05:50:30.579Z,19.21
2022-11-23T05:52:56.680Z,19.20
2022-11-23T05:55:22.224Z,19.20
2022-11-23T05:57:47.766Z,19.19
2022-11-23T06:00:13.425Z,19.19
2022-11-23T06:02:41.165Z,19.19
2022-11-23T06:05:07.587Z,19.19
2022-11-23T06:07:33.245Z,19.19
2022-11-23T06:09:58.806Z,19.20
2022-11-23T06:12:24.358Z,19.20
2022-11-23T06:14:49.934Z,19.19
2022-11-23T06:17:15.487Z,19.19
2022-11-23T06:19:41.032Z,19.19
2022-11-23T06:22:06.570Z,19.19
2022-11-23T06:24:32.229Z,19.19
2022-11-23T06:26:57.763Z,19.19
2022-11-23T06:29:23.329Z,19.19
2022-11-23T06:31:48.963Z,19.20
2022-11-23T06:34:14.516Z,19.18
2022-11-23T06:36:40.057Z,19.19
2022-11-23T06:39:05.612Z,19.19
2022-11-23T06:41:32.708Z,19.18
2022-11-23T06:43:58.364Z,19.19
2022-11-23T06:46:23.896Z,19.19
2022-11-23T06:48:49.438Z,19.19
2022-11-23T06:51:14.980Z,19.20
2022-11-23T06:53:40.549Z,19.20
2022-11-23T06:56:06.468Z,19.19
2022-11-23T06:58:32.053Z,19.18
2022-11-23T07:01:01.267Z,19.18
2022-11-23T07:03:27.016Z,19.18
2022-11-23T07:05:52.582Z,19.18
2022-11-23T07:08:18.131Z,19.18
2022-11-23T07:10:43.747Z,19.18
2022-11-23T07:13:09.757Z,19.18
2022-11-23T07:15:35.680Z,19.19
2022-11-23T07:18:01.696Z,19.19
2022-11-23T07:20:27.317Z,19.18
2022-11-23T07:23:09.357Z,19.18
2022-11-23T07:25:35.493Z,19.18
2022-11-23T07:28:01.422Z,19.18
2022-11-23T07:30:29.489Z,19.18
2022-11-23T07:33:03.034Z,19.18
2022-11-23T07:35:28.780Z,19.18
2022-11-23T07:37:54.321Z,19.19
2022-11-23T07:40:19.873Z,19.18
2022-11-23T07:42:45.475Z,19.18
2022-11-23T07:45:11.121Z,19.18
2022-11-23T07:47:36.888Z,19.20
2022-11-23T07:50:02.923Z,19.17
2022-11-23T07:52:28.492Z,19.18
2022-11-23T07:58:22.673Z,19.18
2022-11-23T08:00:48.232Z,19.18
2022-11-23T08:03:30.137Z,19.18
2022-11-23T08:05:56.066Z,19.18
2022-11-23T08:08:21.679Z,19.18
2022-11-23T08:10:52.621Z,19.18
2022-11-23T08:13:19.771Z,19.18
2022-11-23T08:15:50.163Z,19.18
2022-11-23T08:18:19.097Z,19.19
2022-11-23T08:20:44.649Z,19.18
2022-11-23T08:23:10.208Z,19.18
2022-11-23T08:25:35.753Z,19.18
2022-11-23T08:28:02.501Z,19.17
2022-11-23T08:30:28.595Z,19.19
2022-11-23T08:32:54.145Z,19.17
2022-11-23T08:35:20.080Z,19.18
2022-11-23T08:37:45.609Z,19.18
2022-11-23T08:40:11.517Z,19.18
2022-11-23T08:42:37.069Z,19.18
2022-11-23T08:45:04.507Z,19.18
2022-11-23T08:47:31.453Z,19.18
2022-11-23T08:49:57.006Z,19.17
2022-11-23T08:52:23.069Z,19.17
2022-11-23T08:54:48.618Z,19.17
2022-11-23T08:57:14.169Z,19.17
2022-11-23T08:59:39.729Z,19.18
2022-11-23T09:02:05.478Z,19.18
2022-11-23T09:04:31.066Z,19.18
2022-11-23T09:06:56.629Z,19.17
2022-11-23T09:09:22.171Z,19.17
2022-11-23T09:11:47.732Z,19.19
2022-11-23T09:14:13.415Z,19.19
2022-11-23T09:16:39.116Z,19.20
2022-11-23T09:19:06.387Z,19.21
2022-11-23T09:21:34.816Z,19.21
2022-11-23T09:24:00.630Z,19.20
2022-11-23T09:26:26.185Z,19.21
2022-11-23T09:28:51.730Z,19.20
2022-11-23T09:31:17.305Z,19.22
2022-11-23T09:33:42.863Z,19.23
2022-11-23T09:36:08.827Z,19.23
2022-11-23T09:38:55.122Z,19.23
2022-11-23T09:41:23.026Z,19.22
2022-11-23T09:43:51.981Z,19.23
2022-11-23T09:46:37.480Z,19.21
2022-11-23T09:49:09.929Z,19.21
2022-11-23T09:51:35.977Z,19.17
2022-11-23T09:54:03.814Z,19.22
2022-11-23T09:56:29.880Z,19.19
2022-11-23T09:58:56.456Z,19.23
2022-11-23T10:01:22.068Z,19.24
2022-11-23T10:03:49.404Z,19.25
2022-11-23T10:06:17.549Z,19.26
2022-11-23T10:08:47.202Z,19.26
2022-11-23T10:11:32.645Z,19.31
2022-11-23T10:14:02.849Z,19.09
2022-11-23T10:16:35.774Z,19.23
2022-11-23T10:19:20.065Z,19.28
2022-11-23T10:22:05.742Z,19.28
2022-11-23T10:24:33.119Z,19.29
2022-11-23T10:26:59.014Z,19.30
2022-11-23T10:29:39.557Z,19.29
2022-11-23T10:32:06.332Z,19.28
2022-11-23T10:37:17.521Z,19.30
2022-11-23T10:39:43.154Z,19.29
2022-11-23T10:42:28.615Z,19.31
2022-11-23T10:44:54.222Z,19.31
2022-11-23T10:47:32.442Z,19.31
2022-11-23T10:49:58.116Z,19.30
2022-11-23T10:52:27.939Z,19.32
2022-11-23T10:54:54.610Z,19.34
2022-11-23T10:57:21.502Z,19.34
2022-11-23T11:00:06.934Z,19.34
2022-11-23T11:02:40.420Z,19.33
2022-11-23T11:05:14.782Z,19.41
2022-11-23T11:07:40.364Z,19.39
2022-11-23T11:10:06.097Z,19.38
2022-11-23T11:12:32.590Z,19.38
2022-11-23T11:15:10.328Z,19.38
2022-11-23T11:17:38.713Z,19.37
2022-11-23T11:20:24.156Z,19.38
2022-11-23T11:22:49.724Z,19.39
2022-11-23T11:25:31.433Z,19.38
2022-11-23T11:27:57.298Z,19.42
2022-11-23T11:30:23.187Z,19.41
2022-11-23T11:33:08.676Z,19.41
2022-11-23T11:35:34.537Z,19.41
2022-11-23T11:38:01.815Z,19.40
2022-11-23T11:40:37.042Z,19.00
2022-11-23T11:43:29.268Z,18.84
2022-11-23T11:48:54.614Z,19.35
2022-11-23T11:51:24.013Z,19.39
2022-11-23T11:53:54.479Z,19.41
2022-11-23T11:56:26.993Z,19.42
2022-11-23T11:58:55.495Z,19.42
2022-11-23T12:01:26.476Z,19.42
2022-11-23T12:03:54.345Z,19.43
2022-11-23T12:06:26.368Z,19.44
2022-11-23T12:09:05.739Z,19.43
2022-11-23T12:11:31.290Z,19.39
2022-11-23T12:13:59.191Z,19.48
2022-11-23T12:16:30.379Z,19.52
2022-11-23T12:18:59.747Z,19.38
2022-11-23T12:21:30.085Z,19.44
2022-11-23T12:23:59.398Z,19.46
2022-11-23T12:26:28.754Z,19.46
2022-11-23T12:29:14.223Z,19.46
2022-11-23T12:31:42.801Z,19.47
2022-11-23T12:34:13.712Z,19.48
2022-11-23T12:39:22.041Z,19.47
2022-11-23T12:42:07.521Z,19.42
2022-11-23T12:44:40.484Z,19.50
2022-11-23T12:47:10.594Z,19.49
2022-11-23T12:49:41.035Z,19.50
2022-11-23T12:52:26.462Z,19.49
2022-11-23T12:55:16.437Z,19.49
2022-11-23T12:57:48.769Z,19.50
2022-11-23T13:00:17.088Z,19.50
2022-11-23T13:02:50.193Z,19.49
2022-11-23T13:05:20.196Z,19.58
2022-11-23T13:08:03.784Z,19.62
2022-11-23T13:10:49.242Z,19.60
2022-11-23T13:13:20.019Z,19.58
2022-11-23T13:15:50.029Z,19.58
2022-11-23T13:18:35.624Z,19.56
2022-11-23T13:21:03.251Z,19.54
2022-11-23T13:23:33.923Z,19.60
2022-11-23T13:26:19.415Z,19.60
2022-11-23T13:28:45.984Z,19.60
2022-11-23T13:33:51.889Z,19.59
2022-11-23T13:37:04.441Z,19.56
2022-11-23T13:39:38.686Z,19.60
2022-11-23T13:42:04.232Z,19.37
2022-11-23T13:44:30.882Z,19.53
2022-11-23T13:46:59.345Z,19.59
2022-11-23T13:49:28.963Z,19.60
2022-11-23T13:52:14.395Z,19.59
2022-11-23T13:54:39.932Z,19.59
2022-11-23T13:57:10.025Z,19.61
2022-11-23T13:59:35.585Z,19.60
2022-11-23T14:04:43.202Z,19.59
2022-11-23T14:07:24.740Z,19.62
2022-11-23T14:10:09.944Z,19.60
2022-11-23T14:12:47.616Z,19.64
2022-11-23T14:17:52.789Z,19.63
2022-11-23T14:20:39.231Z,19.62
2022-11-23T14:23:13.268Z,19.62
2022-11-23T14:25:57.732Z,19.63
2022-11-23T14:28:43.187Z,19.64
2022-11-23T14:31:28.684Z,19.63
2022-11-23T14:33:59.477Z,19.63
2022-11-23T14:36:31.237Z,19.64
2022-11-23T14:39:03.842Z,19.63
2022-11-23T14:41:31.307Z,19.64
2022-11-23T14:43:56.979Z,19.63
2022-11-23T14:46:24.828Z,19.64
2022-11-23T14:48:50.865Z,19.63
2022-11-23T14:51:18.321Z,19.64
2022-11-23T14:53:59.629Z,19.64
2022-11-23T14:56:29.266Z,19.63
2022-11-23T14:58:55.535Z,19.64
2022-11-23T15:01:21.563Z,19.64
2022-11-23T15:03:54.768Z,19.64
2022-11-23T15:06:20.467Z,19.64
2022-11-23T15:08:51.058Z,19.65
2022-11-23T15:11:17.829Z,19.64
2022-11-23T15:13:44.485Z,19.64
2022-11-23T15:16:10.630Z,19.64
2022-11-23T15:18:37.171Z,19.65
2022-11-23T15:21:03.473Z,19.65
2022-11-23T15:23:33.923Z,19.65
2022-11-23T15:25:59.990Z,19.65
2022-11-23T15:28:26.298Z,19.65
2022-11-23T15:30:57.978Z,19.65
2022-11-23T15:33:23.998Z,19.65
2022-11-23T15:35:50.098Z,19.64
2022-11-23T15:38:22.020Z,19.65
2022-11-23T15:40:49.106Z,19.65
2022-11-23T15:43:16.193Z,19.64
2022-11-23T15:48:21.277Z,19.64
2022-11-23T15:50:48.222Z,19.64
2022-11-23T15:53:13.789Z,19.63
2022-11-23T15:55:39.339Z,19.64
2022-11-23T15:58:06.825Z,19.63
2022-11-23T16:00:32.374Z,19.63
2022-11-23T16:03:17.860Z,19.63
2022-11-23T16:05:43.416Z,19.63
2022-11-23T16:08:22.627Z,19.63
2022-11-23T16:10:55.202Z,19.64
2022-11-23T16:13:36.860Z,19.63
2022-11-23T16:16:03.834Z,19.62
2022-11-23T16:18:31.041Z,19.61
2022-11-23T16:21:04.121Z,19.60
2022-11-23T16:23:35.039Z,19.61
2022-11-23T16:26:01.111Z,19.61
2022-11-23T16:28:27.857Z,19.62
2022-11-23T16:30:53.558Z,19.61
2022-11-23T16:33:19.536Z,19.60
2022-11-23T16:35:45.429Z,19.60
2022-11-23T16:38:11.845Z,19.60
2022-11-23T16:40:37.603Z,19.61
2022-11-23T16:43:03.361Z,19.59
2022-11-23T16:45:28.912Z,19.59
2022-11-23T16:47:56.273Z,19.41
2022-11-23T16:50:22.018Z,18.86
2022-11-23T16:52:47.557Z,18.62
2022-11-23T16:55:13.106Z,18.63
2022-11-23T16:57:38.699Z,18.58
2022-11-23T17:00:05.545Z,18.99
2022-11-23T17:02:31.173Z,19.25
2022-11-23T17:04:56.786Z,19.38
2022-11-23T17:07:22.448Z,19.44
2022-11-23T17:09:48.043Z,19.47
2022-11-23T17:12:14.925Z,19.49
2022-11-23T17:14:40.477Z,19.51
2022-11-23T17:17:08.811Z,19.52
2022-11-23T17:19:34.819Z,19.53
2022-11-23T17:22:00.565Z,19.54
2022-11-23T17:24:26.105Z,19.55
2022-11-23T17:26:52.262Z,19.55
2022-11-23T17:29:18.885Z,19.56
2022-11-23T17:31:44.891Z,19.56
2022-11-23T17:34:11.258Z,19.56
2022-11-23T17:36:36.891Z,19.55
2022-11-23T17:39:02.521Z,19.57
2022-11-23T17:41:28.067Z,19.55
2022-11-23T17:43:54.299Z,19.57
2022-11-23T17:46:21.524Z,19.55
2022-11-23T17:48:48.518Z,19.57
2022-11-23T17:51:14.083Z,19.55
2022-11-23T17:53:39.742Z,19.57
2022-11-23T17:56:05.557Z,19.57
2022-11-23T17:58:31.106Z,19.55
2022-11-23T18:00:56.970Z,19.56
2022-11-23T18:03:22.740Z,19.57
2022-11-23T18:05:48.321Z,19.58
2022-11-23T18:08:13.871Z,19.58
2022-11-23T18:10:39.427Z,19.58
2022-11-23T18:13:04.984Z,19.58
2022-11-23T18:15:30.570Z,19.57
2022-11-23T18:17:59.022Z,19.58
2022-11-23T18:20:28.679Z,19.58
2022-11-23T18:22:54.227Z,19.59
2022-11-23T18:25:19.782Z,19.60
2022-11-23T18:27:45.321Z,19.58
2022-11-23T18:30:10.922Z,19.59
2022-11-23T18:32:36.461Z,19.58
2022-11-23T18:35:02.026Z,19.59
2022-11-23T18:37:27.568Z,19.58
2022-11-23T18:39:53.107Z,19.59
2022-11-23T18:42:19.124Z,19.59
2022-11-23T18:44:44.670Z,19.60
2022-11-23T18:47:10.226Z,19.59
2022-11-23T18:49:36.061Z,19.58
2022-11-23T18:52:01.820Z,19.58
2022-11-23T18:54:27.361Z,19.58
2022-11-23T18:56:52.893Z,19.56
2022-11-23T18:59:49.985Z,19.58
2022-11-23T19:02:05.712Z,19.57
2022-11-23T19:04:31.722Z,19.57
2022-11-23T19:06:57.265Z,19.56
2022-11-23T19:09:22.816Z,19.57
2022-11-23T19:11:48.371Z,19.56
2022-11-23T19:14:13.967Z,19.55
2022-11-23T19:16:39.513Z,19.57
2022-11-23T19:19:06.050Z,19.57
2022-11-23T19:21:32.218Z,19.56
2022-11-23T19:23:57.929Z,19.57
2022-11-23T19:26:23.673Z,19.55
2022-11-23T19:28:49.309Z,19.53
2022-11-23T19:31:16.259Z,19.54
2022-11-23T19:33:42.579Z,19.54
2022-11-23T19:36:09.273Z,19.55
2022-11-23T19:38:34.824Z,19.54
2022-11-23T19:41:00.408Z,19.54
2022-11-23T19:43:25.956Z,19.53
2022-11-23T19:45:55.090Z,19.54
2022-11-23T19:48:21.801Z,19.54
2022-11-23T19:51:04.517Z,19.54
2022-11-23T19:53:30.988Z,19.54
2022-11-23T19:56:04.504Z,19.52
2022-11-23T19:58:30.352Z,19.53
2022-11-23T20:00:59.610Z,19.52
2022-11-23T20:03:25.153Z,19.52
2022-11-23T20:05:54.813Z,19.52
2022-11-23T20:08:20.357Z,19.52
2022-11-23T20:10:45.905Z,19.53
2022-11-23T20:13:11.451Z,19.52
2022-11-23T20:15:37.011Z,19.51
2022-11-23T20:18:02.568Z,19.51
2022-11-23T20:20:28.125Z,19.51
2022-11-23T20:22:53.670Z,19.52
2022-11-23T20:25:19.310Z,19.51
2022-11-23T20:27:44.853Z,19.51
2022-11-23T20:30:10.599Z,19.51
2022-11-23T20:32:36.143Z,19.51
2022-11-23T20:35:01.696Z,19.51
2022-11-23T20:37:27.298Z,19.50
2022-11-23T20:39:52.943Z,19.49
2022-11-23T20:42:19.680Z,19.51
2022-11-23T20:44:45.227Z,19.50
2022-11-23T20:47:10.873Z,19.50
2022-11-23T20:49:36.466Z,19.50
2022-11-23T20:52:02.218Z,19.50
2022-11-23T20:54:28.154Z,19.50
2022-11-23T20:56:53.823Z,19.49
2022-11-23T20:59:19.804Z,19.48
2022-11-23T21:01:45.506Z,19.48
2022-11-23T21:04:11.092Z,19.48
2022-11-23T21:06:39.532Z,19.47
2022-11-23T21:09:05.519Z,19.48
2022-11-23T21:11:50.955Z,19.47
2022-11-23T21:14:18.428Z,19.46
2022-11-23T21:16:45.333Z,19.47
2022-11-23T21:19:11.656Z,19.46
2022-11-23T21:21:37.396Z,19.45
2022-11-23T21:24:03.289Z,19.46
2022-11-23T21:26:29.066Z,19.45
2022-11-23T21:28:54.917Z,19.45
2022-11-23T21:31:20.514Z,19.45
2022-11-23T21:33:50.697Z,19.45
2022-11-23T21:36:21.377Z,19.44
2022-11-23T21:38:46.939Z,19.45
2022-11-23T21:41:13.349Z,19.45
2022-11-23T21:43:38.932Z,19.45
2022-11-23T21:46:06.303Z,19.45
2022-11-23T21:48:32.326Z,19.44
2022-11-23T21:50:59.496Z,19.44
2022-11-23T21:53:25.109Z,19.44
2022-11-23T21:55:50.654Z,19.44
2022-11-23T21:58:16.212Z,19.43
2022-11-23T22:00:42.333Z,19.43
2022-11-23T22:03:07.910Z,19.44
2022-11-23T22:05:33.452Z,19.44
2022-11-23T22:08:27.733Z,19.43
2022-11-23T22:10:44.514Z,19.44
2022-11-23T22:13:10.197Z,19.43
2022-11-23T22:15:35.738Z,19.42
2022-11-23T22:18:01.290Z,19.43
2022-11-23T22:20:26.911Z,19.43
2022-11-23T22:22:52.465Z,19.42
2022-11-23T22:25:18.451Z,19.43
2022-11-23T22:27:43.998Z,19.43
2022-11-23T22:30:09.596Z,19.42
2022-11-23T22:32:35.145Z,19.42
2022-11-23T22:35:00.689Z,19.42
2022-11-23T22:37:26.245Z,19.41
2022-11-23T22:39:51.794Z,19.41
2022-11-23T22:42:17.342Z,19.42
2022-11-23T22:44:42.897Z,19.41
2022-11-23T22:47:08.526Z,19.41
2022-11-23T22:49:34.081Z,19.41
2022-11-23T22:51:59.624Z,19.42
2022-11-23T22:54:25.183Z,19.41
2022-11-23T22:56:50.734Z,19.41
2022-11-23T22:59:16.284Z,19.41
2022-11-23T23:01:42.100Z,19.41
2022-11-23T23:04:07.661Z,19.40
2022-11-23T23:06:33.884Z,19.41
2022-11-23T23:09:00.442Z,19.40
2022-11-23T23:11:26.871Z,19.41
2022-11-23T23:13:52.835Z,19.41
2022-11-23T23:16:18.431Z,19.40
2022-11-23T23:18:44.391Z,19.40
2022-11-23T23:21:11.082Z,19.39
2022-11-23T23:23:37.175Z,19.39
2022-11-23T23:26:02.789Z,19.39
2022-11-23T23:28:28.387Z,19.40
2022-11-23T23:30:58.512Z,19.38
2022-11-23T23:33:24.077Z,19.39
2022-11-23T23:35:50.184Z,19.39
2022-11-23T23:38:15.724Z,19.39
2022-11-23T23:40:41.272Z,19.39
2022-11-23T23:43:06.815Z,19.38
2022-11-23T23:45:32.426Z,19.38
2022-11-23T23:47:58.278Z,19.38
2022-11-23T23:50:23.828Z,19.37
2022-11-23T23:52:49.374Z,19.38
2022-11-23T23:55:14.942Z,19.38
2022-11-23T23:57:40.484Z,19.36
